Time;durP1;ratioP1;P1;durP2;ratioP2;P2;SDS_P1;SDS_P2;PMS_P1;PMS_P2;Temp;Humidity;BMP_temperature;BMP_pressure;BME280_temperature;BME280_humidity;BME280_pressure;Samples;Min_cycle;Max_cycle;Signal;HPM_P1;HPM_P2
2022/03/18 00:02:17;;;;;;;10.68;3.80;;;6.90;99.90;;;;;;5090269;28;20105;-57
2022/03/18 00:04:44;;;;;;;8.15;3.80;;;6.90;99.90;;;;;;5090324;28;20043;-54
2022/03/18 00:07:11;;;;;;;8.82;3.67;;;6.90;99.90;;;;;;5072170;28;20117;-56
2022/03/18 00:09:40;;;;;;;10.93;3.95;;;6.90;99.90;;;;;;5088610;28;20081;-57
2022/03/18 00:12:13;;;;;;;9.93;3.88;;;6.80;99.90;;;;;;5090048;28;20074;-55
2022/03/18 00:14:40;;;;;;;8.38;3.25;;;6.70;99.90;;;;;;5090310;28;20127;-54
2022/03/18 00:17:11;;;;;;;10.65;4.05;;;6.70;99.90;;;;;;5089660;28;20498;-58
2022/03/18 00:19:38;;;;;;;5.85;3.05;;;6.70;99.90;;;;;;5089215;28;20043;-56
2022/03/18 00:22:05;;;;;;;10.38;3.72;;;6.70;99.90;;;;;;5089666;28;20094;-54
2022/03/18 00:24:33;;;;;;;8.70;3.55;;;6.70;99.90;;;;;;5090127;28;20435;-57
2022/03/18 00:27:00;;;;;;;15.27;4.55;;;6.70;99.90;;;;;;5087107;28;20107;-58
2022/03/18 00:29:27;;;;;;;9.65;4.47;;;6.70;99.90;;;;;;5089578;28;20101;-56
2022/03/18 00:31:54;;;;;;;11.27;4.57;;;6.70;99.90;;;;;;5089109;28;20101;-53
2022/03/18 00:34:21;;;;;;;6.97;3.42;;;6.60;99.90;;;;;;5089640;28;20093;-53
2022/03/18 00:36:48;;;;;;;12.88;5.55;;;6.50;99.90;;;;;;5089243;28;20102;-53
2022/03/18 00:39:14;;;;;;;16.67;5.70;;;6.50;99.90;;;;;;5089627;28;20044;-52
2022/03/18 00:41:41;;;;;;;10.15;3.70;;;6.50;99.90;;;;;;5088467;28;20051;-57
2022/03/18 00:44:08;;;;;;;14.63;4.50;;;6.40;99.90;;;;;;5088805;28;20075;-54
2022/03/18 00:46:35;;;;;;;8.38;4.20;;;6.40;99.90;;;;;;5070741;28;20089;-55
2022/03/18 00:52:03;;;;;;;9.25;3.33;;;6.50;99.90;;;;;;5089495;28;20122;-58
2022/03/18 00:54:34;;;;;;;9.95;4.18;;;6.40;99.90;;;;;;5082703;28;20102;-57
2022/03/18 00:57:02;;;;;;;11.90;4.68;;;6.30;99.90;;;;;;5087368;28;20076;-57
2022/03/18 00:59:28;;;;;;;16.38;4.90;;;6.30;99.90;;;;;;5089571;28;20036;-56
2022/03/18 01:01:56;;;;;;;11.20;4.35;;;6.20;99.90;;;;;;5070824;28;20078;-56
2022/03/18 01:04:24;;;;;;;6.57;3.42;;;6.10;99.90;;;;;;5089287;28;20074;-60
2022/03/18 01:06:52;;;;;;;13.32;3.47;;;6.20;99.90;;;;;;5089231;28;20552;-57
2022/03/18 01:09:20;;;;;;;8.35;3.25;;;6.20;99.90;;;;;;4734208;28;10000645;-58
2022/03/18 01:11:46;;;;;;;9.43;3.13;;;6.20;99.90;;;;;;5067788;28;20559;-59
2022/03/18 01:14:13;;;;;;;10.25;3.83;;;6.20;99.90;;;;;;5087594;28;20046;-58
2022/03/18 01:16:40;;;;;;;11.20;3.10;;;6.30;99.90;;;;;;5089656;28;20380;-57
2022/03/18 01:19:08;;;;;;;9.98;4.10;;;6.30;99.90;;;;;;5088341;28;20105;-58
2022/03/18 01:21:36;;;;;;;7.85;3.22;;;6.30;99.90;;;;;;5088701;28;20044;-57
2022/03/18 01:24:03;;;;;;;13.32;4.30;;;6.20;99.90;;;;;;5088327;28;20072;-54
2022/03/18 01:26:29;;;;;;;10.15;3.03;;;6.10;99.90;;;;;;5088494;28;20043;-56
2022/03/18 01:28:58;;;;;;;9.07;3.53;;;6.00;99.90;;;;;;5066496;28;20466;-57
2022/03/18 01:31:25;;;;;;;9.18;3.60;;;5.90;99.90;;;;;;5066846;28;20068;-55
2022/03/18 01:33:52;;;;;;;8.68;3.65;;;5.80;99.90;;;;;;5067620;28;20169;-57
2022/03/18 01:36:19;;;;;;;9.98;3.38;;;5.80;99.90;;;;;;5067969;28;20109;-56
2022/03/18 01:38:46;;;;;;;11.98;3.65;;;5.80;99.90;;;;;;5067542;28;20775;-55
2022/03/18 01:41:13;;;;;;;10.70;3.53;;;5.90;99.90;;;;;;5068119;28;20090;-56
2022/03/18 01:43:42;;;;;;;16.45;4.55;;;5.90;99.90;;;;;;5065631;28;20114;-55
2022/03/18 01:46:09;;;;;;;13.32;4.03;;;5.90;99.90;;;;;;5067227;28;20049;-56
2022/03/18 01:48:36;;;;;;;5.97;2.78;;;5.90;99.90;;;;;;5066959;28;20135;-56
2022/03/18 01:51:07;;;;;;;9.07;3.25;;;5.90;99.90;;;;;;5066773;28;20036;-56
2022/03/18 01:53:34;;;;;;;9.25;3.95;;;5.80;99.90;;;;;;5067347;28;20037;-55
2022/03/18 01:56:01;;;;;;;10.13;3.92;;;5.80;99.90;;;;;;5064603;28;20056;-57
2022/03/18 01:58:28;;;;;;;12.75;3.67;;;5.80;99.90;;;;;;5061162;28;20076;-57
2022/03/18 02:00:55;;;;;;;11.82;4.75;;;5.80;99.90;;;;;;5067574;28;20053;-58
2022/03/18 02:03:22;;;;;;;11.38;4.30;;;5.80;99.90;;;;;;5066903;28;20059;-59
2022/03/18 02:05:49;;;;;;;13.20;3.55;;;5.70;99.90;;;;;;5067463;28;20091;-57
2022/03/18 02:08:16;;;;;;;17.45;3.90;;;5.70;99.90;;;;;;5066789;28;20052;-56
2022/03/18 02:10:44;;;;;;;9.48;4.57;;;5.70;99.90;;;;;;5067324;28;20037;-58
2022/03/18 02:13:10;;;;;;;9.85;3.38;;;5.60;99.90;;;;;;5067437;28;20040;-58
2022/03/18 02:15:37;;;;;;;8.48;3.50;;;5.60;99.90;;;;;;5067066;28;20079;-56
2022/03/18 02:18:05;;;;;;;8.57;3.55;;;5.60;99.90;;;;;;5068041;28;20114;-57
2022/03/18 02:20:34;;;;;;;11.70;3.58;;;5.70;99.90;;;;;;5067213;28;20098;-54
2022/03/18 02:23:04;;;;;;;11.20;3.95;;;5.70;99.90;;;;;;5059824;28;20713;-54
2022/03/18 02:25:30;;;;;;;8.50;3.67;;;5.60;99.90;;;;;;5066390;28;20040;-56
2022/03/18 02:28:01;;;;;;;11.13;4.10;;;5.60;99.90;;;;;;5067384;28;20083;-56
2022/03/18 02:30:30;;;;;;;10.35;3.65;;;5.60;99.90;;;;;;5085001;28;20056;-52
2022/03/18 02:32:57;;;;;;;17.17;4.75;;;5.60;99.90;;;;;;5069096;28;20064;-55
2022/03/18 02:35:24;;;;;;;8.13;3.45;;;5.60;99.90;;;;;;5086930;28;20075;-53
2022/03/18 02:37:51;;;;;;;9.52;3.33;;;5.60;99.90;;;;;;5087773;28;20048;-55
2022/03/18 02:40:17;;;;;;;11.38;3.08;;;5.60;99.90;;;;;;5086523;28;20052;-57
2022/03/18 02:42:44;;;;;;;6.60;3.00;;;5.50;99.90;;;;;;5086257;28;20107;-57
2022/03/18 02:45:11;;;;;;;14.77;5.38;;;5.40;99.90;;;;;;5086083;28;20131;-58
2022/03/18 02:47:38;;;;;;;12.15;4.15;;;5.30;99.90;;;;;;5086191;28;20044;-56
2022/03/18 02:50:06;;;;;;;5.72;3.05;;;5.20;99.90;;;;;;5086020;28;20212;-57
2022/03/18 02:52:34;;;;;;;11.93;3.78;;;5.20;99.90;;;;;;5085873;28;20105;-53
2022/03/18 02:55:01;;;;;;;10.48;3.25;;;5.30;99.90;;;;;;5087549;28;20279;-55
2022/03/18 02:57:28;;;;;;;11.88;2.80;;;5.30;99.90;;;;;;5086750;28;20040;-56
2022/03/18 02:59:55;;;;;;;12.57;4.00;;;5.30;99.90;;;;;;5087086;28;20075;-57
2022/03/18 03:02:22;;;;;;;10.88;4.18;;;5.30;99.90;;;;;;5085917;28;20074;-57
2022/03/18 03:10:21;;;;;;;9.10;3.63;;;5.40;99.90;;;;;;5084339;28;20548;-57
2022/03/18 03:12:49;;;;;;;7.10;3.17;;;5.40;99.90;;;;;;5086441;28;20113;-57
2022/03/18 03:15:16;;;;;;;8.65;4.22;;;5.40;99.90;;;;;;5068972;28;20078;-58
2022/03/18 03:17:43;;;;;;;9.85;4.85;;;5.30;99.90;;;;;;5068298;28;20051;-57
2022/03/18 03:20:10;;;;;;;6.00;3.00;;;5.30;99.90;;;;;;5085813;28;20043;-58
2022/03/18 03:22:37;;;;;;;5.38;2.80;;;5.30;99.90;;;;;;5086156;28;20448;-57
2022/03/18 03:25:04;;;;;;;6.60;3.05;;;5.30;99.90;;;;;;5086321;28;20076;-56
2022/03/18 03:27:31;;;;;;;7.25;3.45;;;5.30;99.90;;;;;;5085777;28;20109;-58
2022/03/18 03:30:08;;;;;;;7.95;2.60;;;5.20;99.90;;;;;;5068294;28;20084;-58
2022/03/18 03:32:35;;;;;;;7.35;3.10;;;5.20;99.90;;;;;;5067741;28;20048;-58
2022/03/18 03:35:02;;;;;;;8.27;3.22;;;5.10;99.90;;;;;;5086833;28;20040;-58
2022/03/18 03:37:29;;;;;;;9.20;3.42;;;5.10;99.90;;;;;;5086349;28;20044;-58
2022/03/18 03:39:56;;;;;;;7.88;3.30;;;5.20;99.90;;;;;;5086442;28;20051;-56
2022/03/18 03:42:23;;;;;;;8.48;3.83;;;5.20;99.90;;;;;;5085317;28;20109;-57
2022/03/18 03:44:50;;;;;;;10.48;3.63;;;5.20;99.90;;;;;;5085865;28;20074;-57
2022/03/18 03:47:17;;;;;;;14.18;4.20;;;5.10;99.90;;;;;;5085134;28;20079;-55
2022/03/18 03:49:44;;;;;;;10.70;4.10;;;5.20;99.90;;;;;;5084874;28;20052;-55
2022/03/18 03:52:11;;;;;;;6.75;3.08;;;5.00;99.90;;;;;;5068088;28;20078;-54
2022/03/18 03:54:38;;;;;;;5.78;2.67;;;5.00;99.90;;;;;;5085451;28;20074;-57
2022/03/18 03:57:05;;;;;;;7.82;3.15;;;5.00;99.90;;;;;;5086595;28;20168;-53
2022/03/18 03:59:31;;;;;;;15.32;4.00;;;5.00;99.90;;;;;;5086568;28;20129;-56
2022/03/18 04:01:58;;;;;;;9.02;3.78;;;5.00;99.90;;;;;;5085015;28;20534;-55
2022/03/18 04:04:26;;;;;;;8.95;3.28;;;5.00;99.90;;;;;;5077242;28;20135;-52
2022/03/18 04:06:53;;;;;;;6.85;3.03;;;5.00;99.90;;;;;;5063901;28;20554;-57
2022/03/18 04:09:20;;;;;;;8.48;2.97;;;4.90;99.90;;;;;;5085383;28;20070;-55
2022/03/18 04:11:46;;;;;;;14.93;3.78;;;4.90;99.90;;;;;;5086541;28;20127;-55
2022/03/18 04:14:13;;;;;;;5.22;2.50;;;4.90;99.90;;;;;;5085986;28;20572;-54
2022/03/18 04:16:40;;;;;;;11.38;3.65;;;4.80;99.90;;;;;;5086385;28;20083;-57
2022/03/18 04:19:07;;;;;;;8.55;3.10;;;4.60;99.90;;;;;;5085875;28;20040;-56
2022/03/18 04:21:34;;;;;;;7.45;3.45;;;4.60;99.90;;;;;;5086224;28;20044;-57
2022/03/18 04:24:01;;;;;;;10.23;3.05;;;4.50;99.90;;;;;;5077926;28;20095;-57
2022/03/18 04:26:27;;;;;;;9.20;3.70;;;4.60;99.90;;;;;;5086329;28;20096;-57
2022/03/18 04:28:54;;;;;;;10.77;3.72;;;4.60;99.90;;;;;;5086225;28;20113;-54
2022/03/18 04:31:22;;;;;;;10.50;3.35;;;4.70;99.90;;;;;;5087475;28;20096;-56
2022/03/18 04:33:49;;;;;;;9.00;3.58;;;4.70;99.90;;;;;;5081638;28;20072;-58
2022/03/18 04:36:16;;;;;;;6.22;3.13;;;4.70;99.90;;;;;;5088166;28;20089;-56
2022/03/18 04:38:43;;;;;;;8.35;3.60;;;4.70;99.90;;;;;;5090250;28;20104;-56
2022/03/18 04:41:10;;;;;;;7.20;3.00;;;4.80;99.90;;;;;;5088554;28;20511;-56
2022/03/18 04:43:37;;;;;;;8.70;3.05;;;4.70;99.90;;;;;;5090072;28;20109;-56
2022/03/18 04:46:04;;;;;;;9.55;2.67;;;4.60;99.90;;;;;;5089914;28;20071;-57
2022/03/18 04:48:31;;;;;;;10.32;4.18;;;4.60;99.90;;;;;;5088891;28;20059;-52
2022/03/18 04:50:57;;;;;;;8.30;3.42;;;4.50;99.90;;;;;;5088206;28;20068;-53
2022/03/18 04:53:24;;;;;;;10.38;3.50;;;4.50;99.90;;;;;;5088721;28;20044;-56
2022/03/18 04:55:51;;;;;;;10.88;3.55;;;4.50;99.90;;;;;;5088748;28;20052;-55
2022/03/18 04:58:18;;;;;;;14.40;2.85;;;4.60;99.90;;;;;;5089579;28;20069;-55
2022/03/18 05:00:45;;;;;;;9.23;3.40;;;4.50;99.90;;;;;;5089067;28;20056;-56
2022/03/18 05:03:12;;;;;;;8.68;3.42;;;4.50;99.90;;;;;;5071912;28;20059;-58
2022/03/18 05:05:39;;;;;;;5.80;2.67;;;4.50;99.90;;;;;;5089824;28;20126;-55
2022/03/18 05:08:06;;;;;;;8.35;3.05;;;4.60;99.90;;;;;;5089729;28;20085;-56
2022/03/18 05:10:33;;;;;;;7.95;2.83;;;4.50;99.90;;;;;;5089583;28;20036;-57
2022/03/18 05:13:00;;;;;;;10.40;2.72;;;4.50;99.90;;;;;;5085846;28;20163;-56
2022/03/18 05:15:27;;;;;;;6.22;2.38;;;4.60;99.90;;;;;;5087830;28;20100;-57
2022/03/18 05:17:57;;;;;;;10.93;3.83;;;4.50;99.90;;;;;;5070918;28;20048;-56
2022/03/18 05:20:24;;;;;;;5.18;2.72;;;4.50;99.90;;;;;;5088690;28;20825;-56
2022/03/18 05:22:51;;;;;;;9.75;3.92;;;4.40;99.90;;;;;;5089442;28;20451;-59
2022/03/18 05:25:18;;;;;;;10.20;3.20;;;4.40;99.90;;;;;;5070347;28;20094;-55
2022/03/18 05:27:45;;;;;;;13.10;2.92;;;4.40;99.90;;;;;;5087738;28;20075;-58
2022/03/18 05:30:14;;;;;;;10.50;2.92;;;4.40;99.90;;;;;;5088766;28;20087;-55
2022/03/18 05:32:41;;;;;;;9.57;2.95;;;4.40;99.90;;;;;;5071118;28;20044;-56
2022/03/18 05:35:09;;;;;;;8.68;3.53;;;4.40;99.90;;;;;;5088681;28;20056;-57
2022/03/18 05:37:36;;;;;;;12.68;3.42;;;4.40;99.90;;;;;;5088541;28;20117;-55
2022/03/18 05:40:04;;;;;;;10.23;3.13;;;4.40;99.90;;;;;;5088570;28;20112;-56
2022/03/18 05:42:33;;;;;;;10.38;2.95;;;4.40;99.90;;;;;;5086589;28;20079;-57
2022/03/18 05:45:00;;;;;;;9.88;3.03;;;4.40;99.90;;;;;;5088410;28;20055;-55
2022/03/18 05:47:29;;;;;;;13.60;3.00;;;4.40;99.90;;;;;;5087075;28;20040;-56
2022/03/18 05:49:56;;;;;;;8.70;2.67;;;4.40;99.90;;;;;;5087487;28;20065;-56
2022/03/18 05:52:24;;;;;;;9.02;3.15;;;4.30;99.90;;;;;;5069002;28;20072;-56
2022/03/18 05:54:50;;;;;;;13.50;3.13;;;4.30;99.90;;;;;;5087382;28;20048;-55
2022/03/18 05:57:17;;;;;;;11.18;3.25;;;4.30;99.90;;;;;;5087530;28;20076;-57
2022/03/18 05:59:44;;;;;;;10.18;2.92;;;4.30;99.90;;;;;;5069289;28;20052;-55
2022/03/18 06:02:11;;;;;;;7.03;3.03;;;4.30;99.90;;;;;;5087240;28;20564;-57
2022/03/18 06:04:38;;;;;;;6.35;2.97;;;4.30;99.90;;;;;;5088469;28;20379;-58
2022/03/18 06:07:06;;;;;;;12.25;2.85;;;4.20;99.90;;;;;;5087961;28;20200;-56
2022/03/18 06:12:17;;;;;;;8.30;3.45;;;4.20;99.90;;;;;;5087255;28;20076;-57
2022/03/18 06:14:44;;;;;;;9.00;3.08;;;4.20;99.90;;;;;;5087422;28;20422;-56
2022/03/18 06:17:11;;;;;;;13.20;3.10;;;4.20;99.90;;;;;;5069618;28;20079;-55
2022/03/18 06:19:38;;;;;;;7.43;3.40;;;4.20;99.90;;;;;;5087145;28;20069;-53
2022/03/18 06:22:05;;;;;;;6.47;3.17;;;4.20;99.90;;;;;;5087183;28;20075;-56
2022/03/18 06:24:32;;;;;;;7.57;2.60;;;4.20;99.90;;;;;;5069119;28;20101;-57
2022/03/18 06:26:58;;;;;;;8.88;2.85;;;4.20;99.90;;;;;;5087776;28;20056;-59
2022/03/18 06:29:26;;;;;;;10.15;3.58;;;4.10;99.90;;;;;;5087190;28;20098;-55
2022/03/18 06:31:53;;;;;;;10.70;3.30;;;4.00;99.90;;;;;;5086986;28;20075;-57
2022/03/18 06:34:23;;;;;;;7.72;3.67;;;4.00;99.90;;;;;;5085678;28;20043;-59
2022/03/18 06:36:50;;;;;;;9.40;3.72;;;4.00;99.90;;;;;;5085990;28;20048;-57
2022/03/18 06:39:18;;;;;;;10.13;3.47;;;4.00;99.90;;;;;;5086723;28;20454;-56
2022/03/18 06:41:46;;;;;;;7.93;3.63;;;4.10;99.90;;;;;;5069605;28;20044;-58
2022/03/18 06:44:12;;;;;;;20.45;3.97;;;4.10;99.90;;;;;;5086909;28;20079;-58
2022/03/18 06:46:39;;;;;;;10.20;4.20;;;4.20;99.90;;;;;;5068586;28;20040;-59
2022/03/18 06:49:06;;;;;;;9.38;3.92;;;4.30;99.90;;;;;;5068236;28;20075;-58
2022/03/18 06:51:34;;;;;;;20.67;4.63;;;4.30;99.90;;;;;;5067745;28;20056;-60
2022/03/18 06:54:00;;;;;;;13.18;4.88;;;4.30;99.90;;;;;;5085626;28;20079;-58
2022/03/18 06:56:28;;;;;;;13.15;5.10;;;4.50;99.90;;;;;;5086065;28;20051;-57
2022/03/18 06:58:55;;;;;;;15.98;4.45;;;4.50;99.90;;;;;;5087036;28;20086;-56
2022/03/18 07:01:22;;;;;;;13.88;4.20;;;4.50;99.90;;;;;;5086213;28;20044;-57
2022/03/18 07:03:49;;;;;;;10.15;4.15;;;4.60;99.90;;;;;;5079601;28;20135;-60
2022/03/18 07:06:16;;;;;;;8.65;4.25;;;4.50;99.90;;;;;;5086933;28;20048;-57
2022/03/18 07:08:43;;;;;;;12.93;5.30;;;4.60;99.90;;;;;;5087239;28;20064;-55
2022/03/18 07:11:13;;;;;;;14.90;4.32;;;4.60;99.90;;;;;;5086883;28;20475;-56
2022/03/18 07:13:42;;;;;;;23.52;4.72;;;4.70;99.90;;;;;;5086351;28;20410;-57
2022/03/18 07:18:55;;;;;;;11.45;4.35;;;4.70;99.90;;;;;;5069627;28;20135;-59
2022/03/18 07:21:21;;;;;;;19.02;5.97;;;4.80;99.90;;;;;;5086968;28;20040;-58
2022/03/18 07:23:48;;;;;;;12.05;4.15;;;4.90;99.90;;;;;;5087015;28;20075;-56
2022/03/18 07:26:15;;;;;;;27.63;5.70;;;5.00;99.90;;;;;;5085942;28;20071;-58
2022/03/18 07:28:42;;;;;;;12.25;4.45;;;5.00;99.90;;;;;;5086748;28;20044;-58
2022/03/18 07:31:09;;;;;;;16.08;4.43;;;5.20;99.90;;;;;;5085997;28;20098;-57
2022/03/18 07:33:36;;;;;;;12.15;6.28;;;5.20;99.90;;;;;;5086067;28;20054;-58
2022/03/18 07:36:04;;;;;;;13.70;5.50;;;5.50;99.90;;;;;;5085318;28;20093;-57
2022/03/18 07:38:31;;;;;;;16.08;5.90;;;5.50;99.90;;;;;;5085383;28;20048;-56
2022/03/18 07:40:57;;;;;;;19.13;4.80;;;5.60;99.90;;;;;;5084925;28;20071;-57
2022/03/18 07:43:24;;;;;;;9.40;4.57;;;5.70;99.90;;;;;;5084982;28;20075;-55
2022/03/18 07:45:51;;;;;;;12.68;5.22;;;5.80;99.90;;;;;;5084217;28;20137;-58
2022/03/18 07:48:18;;;;;;;12.00;4.18;;;5.90;99.90;;;;;;5084356;28;20179;-59
2022/03/18 07:50:45;;;;;;;14.85;4.55;;;6.00;99.90;;;;;;5083676;28;20665;-57
2022/03/18 07:53:12;;;;;;;15.57;4.78;;;6.10;99.90;;;;;;5083906;28;20075;-58
2022/03/18 07:55:40;;;;;;;22.13;7.18;;;6.20;99.90;;;;;;5084282;28;20089;-57
2022/03/18 07:58:07;;;;;;;22.23;7.57;;;6.30;99.90;;;;;;5083637;28;20044;-58
2022/03/18 08:00:34;;;;;;;16.88;5.15;;;6.30;99.90;;;;;;5084845;28;20048;-58
2022/03/18 08:03:01;;;;;;;28.73;6.43;;;6.40;99.90;;;;;;5083766;28;20055;-58
2022/03/18 08:05:29;;;;;;;20.02;5.72;;;6.60;99.90;;;;;;5076890;28;20051;-58
2022/03/18 08:07:57;;;;;;;20.55;6.15;;;6.70;99.90;;;;;;5087730;28;20080;-60
2022/03/18 08:10:24;;;;;;;15.30;5.80;;;6.90;99.90;;;;;;5087483;28;20059;-59
2022/03/18 08:12:50;;;;;;;19.05;6.63;;;7.00;99.90;;;;;;5086986;28;20087;-59
2022/03/18 08:15:18;;;;;;;16.27;6.22;;;7.20;99.90;;;;;;5088350;28;20192;-59
2022/03/18 08:17:45;;;;;;;20.65;8.95;;;7.30;99.90;;;;;;5087671;28;20113;-60
2022/03/18 08:20:13;;;;;;;26.63;7.57;;;7.40;99.90;;;;;;5088914;28;20535;-59
2022/03/18 08:22:40;;;;;;;18.55;6.93;;;7.50;99.90;;;;;;5088639;28;20055;-60
2022/03/18 08:25:08;;;;;;;20.42;6.10;;;7.60;99.90;;;;;;5088854;28;20140;-60
2022/03/18 08:27:35;;;;;;;17.25;5.90;;;7.70;99.90;;;;;;5088744;28;20068;-60
2022/03/18 08:30:03;;;;;;;29.42;8.82;;;7.90;99.90;;;;;;5069934;28;20056;-59
2022/03/18 08:32:29;;;;;;;16.85;5.15;;;8.00;99.90;;;;;;5070312;28;20562;-58
2022/03/18 08:34:56;;;;;;;17.63;5.72;;;8.10;99.90;;;;;;5088398;28;20044;-59
2022/03/18 08:40:10;;;;;;;30.67;6.70;;;8.40;99.90;;;;;;5072118;28;20214;-59
2022/03/18 08:42:37;;;;;;;19.50;6.00;;;8.50;99.90;;;;;;5079928;28;20540;-59
2022/03/18 08:45:04;;;;;;;17.10;5.88;;;8.60;99.90;;;;;;5088121;28;20552;-61
2022/03/18 08:47:31;;;;;;;24.10;6.18;;;8.70;99.90;;;;;;5053522;28;20051;-60
2022/03/18 08:50:06;;;;;;;23.05;6.07;;;8.80;99.90;;;;;;5088329;28;20048;-61
2022/03/18 08:52:33;;;;;;;24.77;6.57;;;8.90;99.90;;;;;;5086535;28;20082;-59
2022/03/18 08:55:04;;;;;;;23.42;8.20;;;9.00;99.90;;;;;;5085856;28;20484;-58
2022/03/18 08:57:33;;;;;;;16.20;6.30;;;9.10;99.90;;;;;;5069152;28;20473;-59
2022/03/18 09:00:00;;;;;;;20.33;6.32;;;9.10;99.90;;;;;;5086271;28;20533;-59
2022/03/18 09:02:27;;;;;;;27.40;8.57;;;9.20;99.90;;;;;;5068916;28;20127;-59
2022/03/18 09:04:54;;;;;;;18.70;5.55;;;9.20;99.90;;;;;;5068038;28;20075;-59
2022/03/18 09:07:21;;;;;;;21.75;6.32;;;9.30;99.90;;;;;;5088252;28;20052;-59
2022/03/18 09:09:48;;;;;;;25.13;6.32;;;9.40;99.90;;;;;;5088451;28;20101;-60
2022/03/18 09:12:18;;;;;;;23.45;5.80;;;9.50;99.90;;;;;;5087939;28;20086;-61
2022/03/18 09:14:45;;;;;;;20.17;6.78;;;9.60;99.90;;;;;;5087811;28;20490;-61
2022/03/18 09:17:12;;;;;;;19.55;6.72;;;9.90;99.90;;;;;;5087962;28;20453;-59
2022/03/18 09:19:39;;;;;;;31.27;7.00;;;10.20;99.90;;;;;;5086871;28;20056;-61
2022/03/18 09:22:07;;;;;;;35.13;8.48;;;10.50;99.90;;;;;;5088070;28;20040;-59
2022/03/18 09:24:35;;;;;;;19.35;5.88;;;10.80;99.90;;;;;;5069677;28;20051;-60
2022/03/18 09:27:02;;;;;;;15.27;5.63;;;11.10;99.90;;;;;;5088923;28;20044;-61
2022/03/18 09:29:29;;;;;;;21.38;4.93;;;11.30;99.90;;;;;;5088208;28;20056;-59
2022/03/18 09:31:56;;;;;;;19.55;5.93;;;11.60;99.90;;;;;;5070335;28;20235;-60
2022/03/18 09:34:24;;;;;;;25.98;5.65;;;11.90;99.90;;;;;;5070172;28;20048;-60
2022/03/18 09:36:55;;;;;;;18.08;5.63;;;12.10;99.90;;;;;;5088610;28;20101;-60
2022/03/18 09:39:23;;;;;;;22.77;5.63;;;12.40;99.90;;;;;;5070536;28;20051;-58
2022/03/18 09:41:50;;;;;;;19.08;5.00;;;12.50;99.90;;;;;;5087661;28;20105;-60
2022/03/18 09:44:17;;;;;;;25.80;5.22;;;12.50;99.90;;;;;;5052405;28;20049;-60
2022/03/18 09:46:49;;;;;;;12.23;5.03;;;12.40;99.90;;;;;;5088160;28;20073;-60
2022/03/18 09:49:19;;;;;;;20.88;5.15;;;12.10;99.90;;;;;;5069656;28;20442;-59
2022/03/18 09:51:47;;;;;;;16.48;5.53;;;11.90;99.90;;;;;;5087903;28;20285;-60
2022/03/18 09:54:16;;;;;;;20.13;5.88;;;11.70;99.90;;;;;;5088609;28;20094;-59
2022/03/18 09:56:45;;;;;;;17.35;6.13;;;11.60;99.90;;;;;;5088706;28;20040;-60
2022/03/18 09:59:12;;;;;;;19.60;4.75;;;11.50;99.90;;;;;;5070702;28;20051;-60
2022/03/18 10:01:39;;;;;;;30.13;5.28;;;11.50;99.90;;;;;;5088079;28;20048;-60
2022/03/18 10:04:10;;;;;;;15.85;4.50;;;11.50;99.90;;;;;;5088432;28;20139;-60
2022/03/18 10:06:38;;;;;;;18.73;4.88;;;11.50;99.90;;;;;;5086643;28;20040;-59
2022/03/18 10:09:05;;;;;;;15.65;4.70;;;11.50;99.90;;;;;;5088639;28;20055;-60
2022/03/18 10:11:34;;;;;;;14.23;5.45;;;11.40;99.90;;;;;;5088264;28;20032;-60
2022/03/18 10:14:07;;;;;;;17.10;4.85;;;11.30;99.90;;;;;;5088012;28;20052;-60
2022/03/18 10:16:47;;;;;;;18.15;5.28;;;11.40;99.90;;;;;;5087481;28;20040;-59
2022/03/18 10:19:19;;;;;;;22.10;5.22;;;11.30;99.90;;;;;;5081792;28;20075;-58
2022/03/18 10:21:56;;;;;;;22.65;5.85;;;11.40;99.90;;;;;;5070244;28;20063;-60
2022/03/18 10:24:27;;;;;;;15.30;4.63;;;11.40;99.90;;;;;;5088247;28;20117;-60
2022/03/18 10:27:20;;;;;;;16.98;5.35;;;11.50;99.90;;;;;;5088180;28;20032;-60
2022/03/18 10:29:53;;;;;;;21.88;7.10;;;11.50;99.90;;;;;;5087891;28;20052;-60
2022/03/18 10:32:24;;;;;;;15.43;5.83;;;11.50;99.90;;;;;;5082939;28;20066;-59
2022/03/18 10:37:39;;;;;;;18.85;7.88;;;11.60;99.90;;;;;;5083270;28;20179;-60
2022/03/18 10:40:06;;;;;;;17.65;4.90;;;11.60;99.90;;;;;;5087737;28;20051;-58
2022/03/18 10:42:33;;;;;;;17.10;5.35;;;11.60;99.90;;;;;;5069573;28;20127;-60
2022/03/18 10:45:00;;;;;;;19.52;4.93;;;11.70;99.90;;;;;;5052997;28;20395;-60
2022/03/18 10:47:37;;;;;;;19.40;4.95;;;11.70;99.90;;;;;;5052719;28;20101;-60
2022/03/18 10:50:10;;;;;;;26.00;5.70;;;11.80;99.90;;;;;;5087677;28;20052;-59
2022/03/18 10:52:49;;;;;;;16.35;5.45;;;11.90;99.90;;;;;;5087441;28;20491;-60
2022/03/18 10:55:23;;;;;;;19.75;6.20;;;12.00;99.90;;;;;;5087868;28;20044;-59
2022/03/18 10:57:51;;;;;;;14.38;4.80;;;12.00;99.90;;;;;;5062515;28;20521;-60
2022/03/18 11:00:18;;;;;;;18.50;7.13;;;12.10;99.90;;;;;;5087797;28;20084;-59
2022/03/18 11:02:50;;;;;;;18.13;6.65;;;12.10;99.90;;;;;;5087149;28;20044;-60
2022/03/18 11:05:21;;;;;;;17.27;6.95;;;12.20;99.90;;;;;;5070329;28;20051;-60
2022/03/18 11:07:50;;;;;;;13.48;4.97;;;12.20;99.90;;;;;;5087227;28;20044;-59
2022/03/18 11:13:05;;;;;;;14.95;4.78;;;12.30;99.90;;;;;;5064388;28;20084;-60
2022/03/18 11:15:33;;;;;;;16.40;5.65;;;12.20;99.90;;;;;;5087699;28;20067;-59
2022/03/18 11:18:03;;;;;;;13.70;4.60;;;12.30;99.90;;;;;;5086517;28;20491;-59
2022/03/18 11:20:32;;;;;;;15.20;5.13;;;12.30;99.90;;;;;;5069510;28;20469;-58
2022/03/18 11:22:59;;;;;;;21.55;4.95;;;12.40;99.90;;;;;;5086546;28;20071;-59
2022/03/18 11:25:28;;;;;;;14.45;4.10;;;12.50;99.90;;;;;;5086791;28;20044;-61
2022/03/18 11:27:56;;;;;;;12.82;4.38;;;12.70;99.90;;;;;;5086496;28;20048;-60
2022/03/18 11:30:24;;;;;;;12.13;4.15;;;12.70;99.90;;;;;;5069134;28;20327;-60
2022/03/18 11:33:06;;;;;;;18.25;4.10;;;12.70;99.90;;;;;;5068998;28;20525;-61
2022/03/18 11:35:48;;;;;;;20.77;4.47;;;12.80;99.90;;;;;;5086854;28;20036;-60
2022/03/18 11:38:19;;;;;;;8.95;3.58;;;12.80;99.90;;;;;;5086671;28;20040;-60
2022/03/18 11:40:57;;;;;;;25.45;4.00;;;12.90;99.90;;;;;;5087554;28;20052;-61
2022/03/18 11:43:42;;;;;;;13.95;3.88;;;12.90;99.90;;;;;;5090603;28;20311;-59
2022/03/18 11:46:15;;;;;;;11.13;4.05;;;13.00;99.90;;;;;;5091121;28;20077;-59
2022/03/18 11:48:50;;;;;;;12.40;4.20;;;13.00;99.90;;;;;;5090620;28;20072;-59
2022/03/18 11:51:30;;;;;;;16.33;4.25;;;13.30;99.90;;;;;;5071248;28;20044;-59
2022/03/18 11:54:05;;;;;;;16.27;4.18;;;13.20;99.90;;;;;;5090690;28;20070;-59
2022/03/18 11:56:49;;;;;;;18.10;4.75;;;13.30;99.90;;;;;;5089875;28;20047;-59
2022/03/18 11:59:25;;;;;;;15.32;4.35;;;13.30;99.90;;;;;;5090660;28;20075;-60
2022/03/18 12:02:01;;;;;;;12.85;3.92;;;13.20;99.90;;;;;;5089254;28;20048;-60
2022/03/18 12:04:34;;;;;;;16.92;3.50;;;13.10;99.90;;;;;;5090429;28;20150;-60
2022/03/18 12:07:14;;;;;;;14.00;4.00;;;13.30;99.90;;;;;;5090809;28;20514;-58
2022/03/18 12:09:51;;;;;;;13.98;3.17;;;13.40;99.90;;;;;;5089986;28;20474;-60
2022/03/18 12:12:20;;;;;;;10.77;2.78;;;13.40;99.90;;;;;;5072430;28;20043;-61
2022/03/18 12:14:47;;;;;;;13.60;3.60;;;13.30;99.90;;;;;;5071849;28;20343;-60
2022/03/18 12:17:14;;;;;;;13.35;3.40;;;13.30;99.90;;;;;;5090830;28;20044;-59
2022/03/18 12:19:51;;;;;;;9.73;2.63;;;13.40;99.90;;;;;;5090040;28;20158;-61
2022/03/18 12:22:19;;;;;;;23.50;6.10;;;13.40;99.90;;;;;;5086916;28;20071;-60
2022/03/18 12:24:51;;;;;;;11.98;3.05;;;13.60;99.90;;;;;;5072089;28;20056;-58
2022/03/18 12:27:19;;;;;;;18.05;3.83;;;13.70;99.90;;;;;;5089239;28;20048;-58
2022/03/18 12:29:46;;;;;;;12.55;3.17;;;13.90;99.90;;;;;;5090358;28;20044;-59
2022/03/18 12:32:13;;;;;;;19.40;2.08;;;14.00;99.90;;;;;;5089969;28;20572;-59
2022/03/18 12:34:51;;;;;;;7.10;2.10;;;13.90;99.90;;;;;;5090019;28;20479;-58
2022/03/18 12:37:30;;;;;;;13.15;3.17;;;13.90;99.00;;;;;;5089538;28;20048;-61
2022/03/18 12:40:07;;;;;;;16.02;2.10;;;13.80;98.80;;;;;;5072933;28;20052;-59
2022/03/18 12:42:56;;;;;;;12.98;3.08;;;13.80;99.30;;;;;;5088517;28;20044;-59
2022/03/18 12:45:29;;;;;;;9.13;1.50;;;13.80;97.20;;;;;;5071919;28;20075;-59
2022/03/18 12:47:57;;;;;;;10.07;2.05;;;13.80;98.30;;;;;;5089649;28;20035;-59
2022/03/18 12:50:28;;;;;;;11.82;2.78;;;13.70;99.00;;;;;;5089791;28;20044;-59
2022/03/18 12:52:56;;;;;;;16.08;2.38;;;13.70;98.80;;;;;;5088054;28;20040;-60
2022/03/18 12:55:24;;;;;;;11.88;3.22;;;13.70;99.20;;;;;;5089956;28;20446;-61
2022/03/18 12:57:54;;;;;;;12.45;2.47;;;13.70;98.60;;;;;;5089418;28;20487;-60
2022/03/18 13:00:23;;;;;;;8.15;1.50;;;13.60;98.80;;;;;;5070437;28;20051;-60
2022/03/18 13:03:16;;;;;;;9.13;1.50;;;13.60;97.70;;;;;;5088803;28;20048;-61
2022/03/18 13:05:44;;;;;;;11.85;1.63;;;13.60;97.30;;;;;;5086562;28;20055;-60
2022/03/18 13:08:12;;;;;;;6.63;1.85;;;13.60;98.10;;;;;;5071409;28;20507;-61
2022/03/18 13:10:40;;;;;;;9.75;2.00;;;13.70;98.30;;;;;;5081728;28;20487;-60
2022/03/18 13:13:09;;;;;;;11.52;2.08;;;13.70;98.00;;;;;;5088981;28;20589;-59
2022/03/18 13:15:36;;;;;;;8.75;1.52;;;13.80;98.20;;;;;;5089362;28;20040;-60
2022/03/18 13:18:11;;;;;;;4.25;1.77;;;13.80;98.30;;;;;;5089133;28;20070;-59